sensor_id;sensor_type;location;lat;lon;timestamp;pressure;altitude;pressure_sealevel;temperature;humidity
40205;BME280;26963;42.666;23.366;2023-04-15T00:00:53;94164.69;;;10.48;52.90
40205;BME280;26963;42.666;23.366;2023-04-15T00:03:19;94165.06;;;10.33;52.49
40205;BME280;26963;42.666;23.366;2023-04-15T00:05:44;94122.16;;;9.98;52.00
40205;BME280;26963;42.666;23.366;2023-04-15T00:08:10;94164.88;;;10.20;52.53
40205;BME280;26963;42.666;23.366;2023-04-15T00:10:37;94189.28;;;10.27;53.56
40205;BME280;26963;42.666;23.366;2023-04-15T00:13:02;94211.50;;;10.37;55.17
40205;BME280;26963;42.666;23.366;2023-04-15T00:15:28;94040.25;;;9.21;55.99
40205;BME280;26963;42.666;23.366;2023-04-15T00:17:54;94218.66;;;10.50;54.88
40205;BME280;26963;42.666;23.366;2023-04-15T00:20:20;94210.00;;;10.53;56.10
40205;BME280;26963;42.666;23.366;2023-04-15T00:22:58;94193.59;;;10.46;56.62
40205;BME280;26963;42.666;23.366;2023-04-15T00:25:25;94138.53;;;10.05;54.75
40205;BME280;26963;42.666;23.366;2023-04-15T00:27:50;94101.06;;;9.87;54.69
40205;BME280;26963;42.666;23.366;2023-04-15T00:30:16;94190.78;;;10.51;56.13
40205;BME280;26963;42.666;23.366;2023-04-15T00:32:41;94183.91;;;10.59;56.17
40205;BME280;26963;42.666;23.366;2023-04-15T00:35:07;94147.19;;;10.42;56.57
40205;BME280;26963;42.666;23.366;2023-04-15T00:37:33;94181.88;;;10.65;54.71
40205;BME280;26963;42.666;23.366;2023-04-15T00:40:00;94154.47;;;10.50;54.35
40205;BME280;26963;42.666;23.366;2023-04-15T00:42:26;94147.69;;;10.44;53.79
40205;BME280;26963;42.666;23.366;2023-04-15T00:44:52;94213.53;;;10.80;53.83
40205;BME280;26963;42.666;23.366;2023-04-15T00:47:17;94195.75;;;10.67;55.60
40205;BME280;26963;42.666;23.366;2023-04-15T00:49:43;94220.50;;;10.90;56.69
40205;BME280;26963;42.666;23.366;2023-04-15T00:52:09;94156.66;;;10.48;56.46
40205;BME280;26963;42.666;23.366;2023-04-15T00:54:34;94185.66;;;10.72;56.58
40205;BME280;26963;42.666;23.366;2023-04-15T00:57:00;94211.22;;;10.87;56.11
40205;BME280;26963;42.666;23.366;2023-04-15T00:59:26;94206.34;;;10.89;55.98
40205;BME280;26963;42.666;23.366;2023-04-15T01:01:52;94191.34;;;10.71;55.68
40205;BME280;26963;42.666;23.366;2023-04-15T01:04:17;94221.25;;;10.82;53.84
40205;BME280;26963;42.666;23.366;2023-04-15T01:06:43;94205.97;;;10.65;53.27
40205;BME280;26963;42.666;23.366;2023-04-15T01:09:09;94221.38;;;10.68;53.51
40205;BME280;26963;42.666;23.366;2023-04-15T01:11:35;94215.38;;;10.62;54.28
40205;BME280;26963;42.666;23.366;2023-04-15T01:14:01;94213.50;;;10.63;54.53
40205;BME280;26963;42.666;23.366;2023-04-15T01:16:30;94044.97;;;9.56;53.60
40205;BME280;26963;42.666;23.366;2023-04-15T01:18:56;94185.16;;;10.53;53.79
40205;BME280;26963;42.666;23.366;2023-04-15T01:21:22;94208.47;;;10.61;54.31
40205;BME280;26963;42.666;23.366;2023-04-15T01:23:47;94177.56;;;10.46;53.95
40205;BME280;26963;42.666;23.366;2023-04-15T01:26:14;94199.50;;;10.66;53.74
40205;BME280;26963;42.666;23.366;2023-04-15T01:28:40;94207.56;;;10.74;54.87
40205;BME280;26963;42.666;23.366;2023-04-15T01:31:11;94184.06;;;10.63;55.80
40205;BME280;26963;42.666;23.366;2023-04-15T01:33:39;94196.53;;;10.76;54.92
40205;BME280;26963;42.666;23.366;2023-04-15T01:36:06;94194.50;;;10.73;53.68
40205;BME280;26963;42.666;23.366;2023-04-15T01:38:33;94204.88;;;10.66;53.20
40205;BME280;26963;42.666;23.366;2023-04-15T01:40:59;94202.94;;;10.57;52.67
40205;BME280;26963;42.666;23.366;2023-04-15T01:43:25;94191.81;;;10.33;51.62
40205;BME280;26963;42.666;23.366;2023-04-15T01:45:51;94213.34;;;10.27;51.97
40205;BME280;26963;42.666;23.366;2023-04-15T01:48:16;94212.75;;;10.08;51.96
40205;BME280;26963;42.666;23.366;2023-04-15T01:50:42;94226.88;;;10.00;52.26
40205;BME280;26963;42.666;23.366;2023-04-15T01:53:08;94188.69;;;9.76;52.55
40205;BME280;26963;42.666;23.366;2023-04-15T01:55:34;94221.41;;;10.05;52.88
40205;BME280;26963;42.666;23.366;2023-04-15T01:57:59;94218.34;;;9.98;52.98
40205;BME280;26963;42.666;23.366;2023-04-15T02:00:25;94266.56;;;10.15;53.79
40205;BME280;26963;42.666;23.366;2023-04-15T02:02:51;94233.53;;;10.11;54.17
40205;BME280;26963;42.666;23.366;2023-04-15T02:05:17;94233.88;;;10.18;55.07
40205;BME280;26963;42.666;23.366;2023-04-15T02:07:42;94213.97;;;10.02;55.29
40205;BME280;26963;42.666;23.366;2023-04-15T02:10:08;94226.34;;;10.20;55.36
40205;BME280;26963;42.666;23.366;2023-04-15T02:12:34;94187.25;;;10.02;56.85
40205;BME280;26963;42.666;23.366;2023-04-15T02:15:00;94218.81;;;10.22;54.57
40205;BME280;26963;42.666;23.366;2023-04-15T02:17:26;94213.59;;;10.17;54.12
40205;BME280;26963;42.666;23.366;2023-04-15T02:19:51;94130.47;;;9.65;53.47
40205;BME280;26963;42.666;23.366;2023-04-15T02:22:17;94194.53;;;10.10;53.52
40205;BME280;26963;42.666;23.366;2023-04-15T02:24:43;94185.06;;;10.04;53.98
40205;BME280;26963;42.666;23.366;2023-04-15T02:27:10;94173.69;;;9.89;54.74
40205;BME280;26963;42.666;23.366;2023-04-15T02:29:39;94204.13;;;10.11;53.68
40205;BME280;26963;42.666;23.366;2023-04-15T02:32:05;94115.03;;;9.53;53.94
40205;BME280;26963;42.666;23.366;2023-04-15T02:34:31;94200.19;;;10.08;54.17
40205;BME280;26963;42.666;23.366;2023-04-15T02:36:58;94203.66;;;10.09;55.16
40205;BME280;26963;42.666;23.366;2023-04-15T02:39:23;94142.44;;;9.67;54.01
40205;BME280;26963;42.666;23.366;2023-04-15T02:41:49;94200.59;;;10.02;54.36
40205;BME280;26963;42.666;23.366;2023-04-15T02:44:17;94209.84;;;9.95;56.10
40205;BME280;26963;42.666;23.366;2023-04-15T02:46:45;94193.88;;;9.82;57.11
40205;BME280;26963;42.666;23.366;2023-04-15T02:49:17;94170.03;;;9.62;56.54
40205;BME280;26963;42.666;23.366;2023-04-15T02:51:42;94196.88;;;9.80;57.32
40205;BME280;26963;42.666;23.366;2023-04-15T02:54:09;94150.00;;;9.42;57.39
40205;BME280;26963;42.666;23.366;2023-04-15T02:56:35;94227.72;;;9.86;54.98
40205;BME280;26963;42.666;23.366;2023-04-15T02:59:00;94202.44;;;9.24;55.78
40205;BME280;26963;42.666;23.366;2023-04-15T03:01:26;94194.72;;;8.44;56.90
40205;BME280;26963;42.666;23.366;2023-04-15T03:03:51;94222.25;;;8.40;57.24
40205;BME280;26963;42.666;23.366;2023-04-15T03:06:17;94166.72;;;7.86;58.56
40205;BME280;26963;42.666;23.366;2023-04-15T03:08:42;94236.06;;;8.28;58.95
40205;BME280;26963;42.666;23.366;2023-04-15T03:11:08;94181.41;;;7.70;58.71
40205;BME280;26963;42.666;23.366;2023-04-15T03:13:33;94224.97;;;7.74;59.41
40205;BME280;26963;42.666;23.366;2023-04-15T03:15:59;94242.78;;;7.59;59.45
40205;BME280;26963;42.666;23.366;2023-04-15T03:18:24;94248.13;;;7.59;59.66
40205;BME280;26963;42.666;23.366;2023-04-15T03:20:50;94264.94;;;7.74;59.61
40205;BME280;26963;42.666;23.366;2023-04-15T03:23:16;94095.75;;;6.63;59.82
40205;BME280;26963;42.666;23.366;2023-04-15T03:25:41;94257.13;;;7.96;58.96
40205;BME280;26963;42.666;23.366;2023-04-15T03:28:07;94231.72;;;7.85;58.52
40205;BME280;26963;42.666;23.366;2023-04-15T03:30:32;94260.13;;;8.09;58.08
40205;BME280;26963;42.666;23.366;2023-04-15T03:32:58;94240.88;;;8.12;57.90
40205;BME280;26963;42.666;23.366;2023-04-15T03:35:23;94184.13;;;7.64;57.41
40205;BME280;26963;42.666;23.366;2023-04-15T03:37:49;94206.78;;;7.81;57.80
40205;BME280;26963;42.666;23.366;2023-04-15T03:40:15;94202.75;;;7.97;57.93
40205;BME280;26963;42.666;23.366;2023-04-15T03:42:40;94263.44;;;8.33;57.59
40205;BME280;26963;42.666;23.366;2023-04-15T03:45:06;94270.75;;;8.42;58.29
40205;BME280;26963;42.666;23.366;2023-04-15T03:47:32;94276.41;;;8.54;58.62
40205;BME280;26963;42.666;23.366;2023-04-15T03:50:00;94264.31;;;8.43;58.24
40205;BME280;26963;42.666;23.366;2023-04-15T03:52:26;94280.25;;;8.48;57.90
40205;BME280;26963;42.666;23.366;2023-04-15T03:54:51;94202.97;;;8.01;57.93
40205;BME280;26963;42.666;23.366;2023-04-15T03:57:17;94288.06;;;8.58;58.63
40205;BME280;26963;42.666;23.366;2023-04-15T03:59:42;94261.81;;;8.52;58.44
40205;BME280;26963;42.666;23.366;2023-04-15T04:02:08;94306.84;;;8.81;58.17
40205;BME280;26963;42.666;23.366;2023-04-15T04:04:33;94290.25;;;8.84;58.31
40205;BME280;26963;42.666;23.366;2023-04-15T04:06:59;94291.25;;;8.88;57.56
40205;BME280;26963;42.666;23.366;2023-04-15T04:09:25;94290.75;;;8.72;57.48
40205;BME280;26963;42.666;23.366;2023-04-15T04:11:50;94276.44;;;8.68;57.57
40205;BME280;26963;42.666;23.366;2023-04-15T04:14:16;94278.38;;;8.76;57.88
40205;BME280;26963;42.666;23.366;2023-04-15T04:16:41;94280.78;;;8.78;58.04
40205;BME280;26963;42.666;23.366;2023-04-15T04:19:07;94307.34;;;8.97;58.33
40205;BME280;26963;42.666;23.366;2023-04-15T04:21:32;94304.50;;;8.93;58.72
40205;BME280;26963;42.666;23.366;2023-04-15T04:23:58;94285.50;;;8.81;58.64
40205;BME280;26963;42.666;23.366;2023-04-15T04:26:24;94283.03;;;8.85;58.79
40205;BME280;26963;42.666;23.366;2023-04-15T04:28:50;94294.78;;;8.97;59.28
40205;BME280;26963;42.666;23.366;2023-04-15T04:31:15;94285.72;;;8.98;59.09
40205;BME280;26963;42.666;23.366;2023-04-15T04:33:41;94286.69;;;9.03;58.25
40205;BME280;26963;42.666;23.366;2023-04-15T04:36:06;94298.75;;;9.14;58.15
40205;BME280;26963;42.666;23.366;2023-04-15T04:38:32;94244.41;;;8.82;58.35
40205;BME280;26963;42.666;23.366;2023-04-15T04:41:00;94282.22;;;9.12;57.65
40205;BME280;26963;42.666;23.366;2023-04-15T04:43:26;94257.03;;;9.04;57.58
40205;BME280;26963;42.666;23.366;2023-04-15T04:45:52;94301.47;;;9.37;57.44
40205;BME280;26963;42.666;23.366;2023-04-15T04:48:17;94299.31;;;9.39;57.54
40205;BME280;26963;42.666;23.366;2023-04-15T04:50:43;94265.63;;;9.15;58.21
40205;BME280;26963;42.666;23.366;2023-04-15T04:53:09;94322.19;;;9.54;57.24
40205;BME280;26963;42.666;23.366;2023-04-15T04:55:35;94319.84;;;9.52;56.88
40205;BME280;26963;42.666;23.366;2023-04-15T04:58:01;94306.59;;;9.47;56.47
40205;BME280;26963;42.666;23.366;2023-04-15T05:00:33;94328.13;;;9.65;56.51
40205;BME280;26963;42.666;23.366;2023-04-15T05:02:59;94325.56;;;9.59;56.18
40205;BME280;26963;42.666;23.366;2023-04-15T05:05:24;94263.38;;;9.08;56.26
40205;BME280;26963;42.666;23.366;2023-04-15T05:07:50;94345.00;;;9.74;56.13
40205;BME280;26963;42.666;23.366;2023-04-15T05:10:16;94327.44;;;9.73;55.93
40205;BME280;26963;42.666;23.366;2023-04-15T05:12:42;94322.16;;;9.68;55.83
40205;BME280;26963;42.666;23.366;2023-04-15T05:15:08;94241.59;;;9.15;55.64
40205;BME280;26963;42.666;23.366;2023-04-15T05:17:34;94362.47;;;9.94;55.65
40205;BME280;26963;42.666;23.366;2023-04-15T05:20:00;94320.50;;;9.72;54.86
40205;BME280;26963;42.666;23.366;2023-04-15T05:22:26;94366.03;;;10.03;54.71
40205;BME280;26963;42.666;23.366;2023-04-15T05:24:52;94358.66;;;10.09;54.64
40205;BME280;26963;42.666;23.366;2023-04-15T05:27:18;94363.72;;;10.10;55.34
40205;BME280;26963;42.666;23.366;2023-04-15T05:29:43;94371.50;;;10.21;54.61
40205;BME280;26963;42.666;23.366;2023-04-15T05:32:09;94289.91;;;9.78;53.62
40205;BME280;26963;42.666;23.366;2023-04-15T05:34:35;94334.75;;;10.04;52.88
40205;BME280;26963;42.666;23.366;2023-04-15T05:37:00;94359.06;;;10.16;53.48
40205;BME280;26963;42.666;23.366;2023-04-15T05:39:26;94347.75;;;10.19;52.83
40205;BME280;26963;42.666;23.366;2023-04-15T05:41:52;94361.66;;;10.30;50.94
40205;BME280;26963;42.666;23.366;2023-04-15T05:44:17;94283.06;;;9.86;50.59
40205;BME280;26963;42.666;23.366;2023-04-15T05:46:43;94316.69;;;10.09;50.28
40205;BME280;26963;42.666;23.366;2023-04-15T05:49:08;94344.53;;;10.31;50.12
40205;BME280;26963;42.666;23.366;2023-04-15T05:51:34;94356.88;;;10.41;50.29
40205;BME280;26963;42.666;23.366;2023-04-15T05:54:00;94285.91;;;9.89;50.52
40205;BME280;26963;42.666;23.366;2023-04-15T05:56:29;94348.97;;;10.36;50.78
40205;BME280;26963;42.666;23.366;2023-04-15T05:58:54;94378.19;;;10.55;51.27
40205;BME280;26963;42.666;23.366;2023-04-15T06:01:20;94352.97;;;10.47;50.65
40205;BME280;26963;42.666;23.366;2023-04-15T06:03:46;94373.41;;;10.66;50.60
40205;BME280;26963;42.666;23.366;2023-04-15T06:06:13;94367.56;;;10.64;50.89
40205;BME280;26963;42.666;23.366;2023-04-15T06:08:40;94301.13;;;10.34;50.38
40205;BME280;26963;42.666;23.366;2023-04-15T06:11:05;94383.59;;;10.86;50.49
40205;BME280;26963;42.666;23.366;2023-04-15T06:13:31;94358.19;;;10.75;50.19
40205;BME280;26963;42.666;23.366;2023-04-15T06:16:00;94362.84;;;10.60;50.80
40205;BME280;26963;42.666;23.366;2023-04-15T06:18:25;94379.00;;;10.78;49.65
40205;BME280;26963;42.666;23.366;2023-04-15T06:20:51;94355.91;;;10.59;50.29
40205;BME280;26963;42.666;23.366;2023-04-15T06:23:16;94376.91;;;10.75;49.56
40205;BME280;26963;42.666;23.366;2023-04-15T06:25:42;94377.75;;;10.84;49.54
40205;BME280;26963;42.666;23.366;2023-04-15T06:28:07;94388.03;;;10.91;49.75
40205;BME280;26963;42.666;23.366;2023-04-15T06:30:33;94328.06;;;10.60;49.33
40205;BME280;26963;42.666;23.366;2023-04-15T06:33:00;94394.53;;;12.14;47.07
40205;BME280;26963;42.666;23.366;2023-04-15T06:35:25;94396.81;;;15.82;38.01
40205;BME280;26963;42.666;23.366;2023-04-15T06:37:51;94383.44;;;18.07;33.50
40205;BME280;26963;42.666;23.366;2023-04-15T06:40:17;94375.06;;;20.37;29.95
40205;BME280;26963;42.666;23.366;2023-04-15T06:42:42;94222.56;;;20.77;27.01
40205;BME280;26963;42.666;23.366;2023-04-15T06:45:08;94385.38;;;23.08;25.51
40205;BME280;26963;42.666;23.366;2023-04-15T06:47:34;94383.03;;;24.66;23.37
40205;BME280;26963;42.666;23.366;2023-04-15T06:49:59;94374.50;;;25.31;22.36
40205;BME280;26963;42.666;23.366;2023-04-15T06:52:25;94352.00;;;26.48;20.99
40205;BME280;26963;42.666;23.366;2023-04-15T06:54:50;94387.31;;;27.94;20.24
40205;BME280;26963;42.666;23.366;2023-04-15T06:57:16;94337.22;;;28.30;18.93
40205;BME280;26963;42.666;23.366;2023-04-15T06:59:41;94370.97;;;29.31;17.97
40205;BME280;26963;42.666;23.366;2023-04-15T07:02:11;94392.25;;;29.31;17.55
40205;BME280;26963;42.666;23.366;2023-04-15T07:04:43;94376.84;;;29.33;17.87
40205;BME280;26963;42.666;23.366;2023-04-15T07:07:09;94375.03;;;29.96;17.02
40205;BME280;26963;42.666;23.366;2023-04-15T07:09:34;94358.38;;;30.16;17.00
40205;BME280;26963;42.666;23.366;2023-04-15T07:12:00;94382.41;;;30.91;15.98
40205;BME280;26963;42.666;23.366;2023-04-15T07:14:25;94398.88;;;31.76;16.18
40205;BME280;26963;42.666;23.366;2023-04-15T07:16:52;94380.06;;;31.58;15.32
40205;BME280;26963;42.666;23.366;2023-04-15T07:19:17;94325.16;;;30.79;15.96
40205;BME280;26963;42.666;23.366;2023-04-15T07:21:43;94354.91;;;31.00;16.10
40205;BME280;26963;42.666;23.366;2023-04-15T07:24:08;94380.50;;;31.82;16.16
40205;BME280;26963;42.666;23.366;2023-04-15T07:26:34;94375.31;;;32.45;15.53
40205;BME280;26963;42.666;23.366;2023-04-15T07:29:00;94383.44;;;32.26;14.57
40205;BME280;26963;42.666;23.366;2023-04-15T07:31:26;94382.91;;;32.06;15.04
40205;BME280;26963;42.666;23.366;2023-04-15T07:33:51;94400.38;;;32.28;15.11
40205;BME280;26963;42.666;23.366;2023-04-15T07:36:17;94401.44;;;32.79;15.03
40205;BME280;26963;42.666;23.366;2023-04-15T07:38:43;94391.28;;;32.15;15.45
40205;BME280;26963;42.666;23.366;2023-04-15T07:41:08;94386.72;;;31.86;15.77
40205;BME280;26963;42.666;23.366;2023-04-15T07:43:34;94332.72;;;31.43;15.86
40205;BME280;26963;42.666;23.366;2023-04-15T07:46:00;94389.69;;;31.40;15.66
40205;BME280;26963;42.666;23.366;2023-04-15T07:48:25;94401.81;;;31.17;15.72
40205;BME280;26963;42.666;23.366;2023-04-15T07:50:54;94332.69;;;30.91;15.92
40205;BME280;26963;42.666;23.366;2023-04-15T07:53:19;94397.88;;;31.56;15.64
40205;BME280;26963;42.666;23.366;2023-04-15T07:55:45;94400.03;;;32.13;14.91
40205;BME280;26963;42.666;23.366;2023-04-15T07:58:10;94399.81;;;32.68;14.67
40205;BME280;26963;42.666;23.366;2023-04-15T08:00:36;94397.56;;;31.67;15.05
40205;BME280;26963;42.666;23.366;2023-04-15T08:03:02;94412.16;;;31.81;15.24
40205;BME280;26963;42.666;23.366;2023-04-15T08:05:28;94404.84;;;31.35;14.98
40205;BME280;26963;42.666;23.366;2023-04-15T08:07:53;94382.53;;;31.68;15.41
40205;BME280;26963;42.666;23.366;2023-04-15T08:10:19;94405.03;;;32.06;14.96
40205;BME280;26963;42.666;23.366;2023-04-15T08:12:44;94395.13;;;32.43;14.74
40205;BME280;26963;42.666;23.366;2023-04-15T08:15:13;94409.56;;;32.60;14.55
40205;BME280;26963;42.666;23.366;2023-04-15T08:17:39;94412.53;;;32.79;14.63
40205;BME280;26963;42.666;23.366;2023-04-15T08:20:05;94349.13;;;32.81;15.01
40205;BME280;26963;42.666;23.366;2023-04-15T08:22:31;94362.13;;;33.47;14.19
40205;BME280;26963;42.666;23.366;2023-04-15T08:24:56;94406.94;;;34.27;13.44
40205;BME280;26963;42.666;23.366;2023-04-15T08:27:25;94412.28;;;34.03;13.16
40205;BME280;26963;42.666;23.366;2023-04-15T08:29:50;94405.63;;;33.06;13.98
40205;BME280;26963;42.666;23.366;2023-04-15T08:32:16;94376.91;;;32.20;14.38
40205;BME280;26963;42.666;23.366;2023-04-15T08:34:41;94405.03;;;31.28;15.75
40205;BME280;26963;42.666;23.366;2023-04-15T08:37:07;94362.03;;;30.72;15.53
40205;BME280;26963;42.666;23.366;2023-04-15T08:39:32;94397.59;;;30.24;16.05
40205;BME280;26963;42.666;23.366;2023-04-15T08:42:00;94390.47;;;29.93;16.20
40205;BME280;26963;42.666;23.366;2023-04-15T08:44:28;94331.06;;;30.35;15.73
40205;BME280;26963;42.666;23.366;2023-04-15T08:46:56;94383.13;;;31.21;14.93
40205;BME280;26963;42.666;23.366;2023-04-15T08:49:26;94367.06;;;30.15;16.42
40205;BME280;26963;42.666;23.366;2023-04-15T08:52:00;94386.34;;;28.52;17.00
40205;BME280;26963;42.666;23.366;2023-04-15T08:54:27;94316.47;;;26.37;18.40
40205;BME280;26963;42.666;23.366;2023-04-15T08:56:57;94378.03;;;25.87;20.44
40205;BME280;26963;42.666;23.366;2023-04-15T08:59:28;94318.81;;;24.96;21.06
40205;BME280;26963;42.666;23.366;2023-04-15T09:01:54;94394.22;;;24.97;21.28
40205;BME280;26963;42.666;23.366;2023-04-15T09:04:21;94381.22;;;23.90;22.04
40205;BME280;26963;42.666;23.366;2023-04-15T09:06:47;94342.81;;;22.75;22.63
40205;BME280;26963;42.666;23.366;2023-04-15T09:09:12;94327.97;;;21.84;22.32
40205;BME280;26963;42.666;23.366;2023-04-15T09:11:38;94370.31;;;21.78;22.68
40205;BME280;26963;42.666;23.366;2023-04-15T09:14:04;94372.59;;;21.72;23.08
40205;BME280;26963;42.666;23.366;2023-04-15T09:16:30;94353.56;;;21.27;23.82
40205;BME280;26963;42.666;23.366;2023-04-15T09:18:56;94362.94;;;21.33;23.50
40205;BME280;26963;42.666;23.366;2023-04-15T09:21:22;94205.16;;;20.44;23.55
40205;BME280;26963;42.666;23.366;2023-04-15T09:23:57;94355.41;;;21.57;24.03
40205;BME280;26963;42.666;23.366;2023-04-15T09:26:33;94350.41;;;21.66;23.25
40205;BME280;26963;42.666;23.366;2023-04-15T09:29:09;94362.16;;;21.78;23.27
40205;BME280;26963;42.666;23.366;2023-04-15T09:31:35;94349.34;;;21.82;23.01
40205;BME280;26963;42.666;23.366;2023-04-15T09:34:01;94364.34;;;22.17;22.53
40205;BME280;26963;42.666;23.366;2023-04-15T09:39:12;94369.84;;;22.28;21.38
40205;BME280;26963;42.666;23.366;2023-04-15T09:41:38;94361.69;;;22.31;22.04
40205;BME280;26963;42.666;23.366;2023-04-15T09:44:04;94343.28;;;22.07;21.62
40205;BME280;26963;42.666;23.366;2023-04-15T09:46:43;94349.78;;;21.91;22.19
40205;BME280;26963;42.666;23.366;2023-04-15T09:49:10;94352.84;;;21.79;22.21
40205;BME280;26963;42.666;23.366;2023-04-15T09:51:36;94295.34;;;21.39;22.02
40205;BME280;26963;42.666;23.366;2023-04-15T09:54:03;94306.19;;;21.35;22.75
40205;BME280;26963;42.666;23.366;2023-04-15T09:56:37;94331.28;;;21.59;21.93
40205;BME280;26963;42.666;23.366;2023-04-15T09:59:06;94352.31;;;21.62;21.84
40205;BME280;26963;42.666;23.366;2023-04-15T10:01:32;94308.31;;;21.08;21.93
40205;BME280;26963;42.666;23.366;2023-04-15T10:04:04;94344.59;;;21.23;21.67
40205;BME280;26963;42.666;23.366;2023-04-15T10:06:30;94344.09;;;21.14;21.86
40205;BME280;26963;42.666;23.366;2023-04-15T10:08:59;94360.00;;;21.12;21.88
40205;BME280;26963;42.666;23.366;2023-04-15T10:11:30;94292.94;;;20.51;23.15
40205;BME280;26963;42.666;23.366;2023-04-15T10:13:59;94358.28;;;20.96;22.12
40205;BME280;26963;42.666;23.366;2023-04-15T10:16:26;94354.16;;;21.10;22.67
40205;BME280;26963;42.666;23.366;2023-04-15T10:18:56;94340.38;;;21.29;22.67
40205;BME280;26963;42.666;23.366;2023-04-15T10:21:23;94342.75;;;21.34;22.21
40205;BME280;26963;42.666;23.366;2023-04-15T10:23:50;94328.69;;;21.29;22.68
40205;BME280;26963;42.666;23.366;2023-04-15T10:26:16;94310.78;;;21.28;22.20
40205;BME280;26963;42.666;23.366;2023-04-15T10:28:45;94300.03;;;20.97;22.52
40205;BME280;26963;42.666;23.366;2023-04-15T10:31:14;94254.06;;;20.44;22.70
40205;BME280;26963;42.666;23.366;2023-04-15T10:33:42;94316.03;;;20.68;22.36
40205;BME280;26963;42.666;23.366;2023-04-15T10:36:09;94230.00;;;20.08;22.03
40205;BME280;26963;42.666;23.366;2023-04-15T10:38:37;94321.72;;;20.56;23.93
40205;BME280;26963;42.666;23.366;2023-04-15T10:41:20;94294.28;;;20.31;23.99
40205;BME280;26963;42.666;23.366;2023-04-15T10:43:50;94324.31;;;20.45;24.90
40205;BME280;26963;42.666;23.366;2023-04-15T10:46:37;94314.88;;;20.35;23.93
40205;BME280;26963;42.666;23.366;2023-04-15T10:49:14;94267.63;;;20.10;22.92
40205;BME280;26963;42.666;23.366;2023-04-15T10:51:50;94319.91;;;20.33;23.12
40205;BME280;26963;42.666;23.366;2023-04-15T10:54:30;94285.50;;;20.11;23.84
40205;BME280;26963;42.666;23.366;2023-04-15T11:02:56;94232.50;;;19.90;23.03
40205;BME280;26963;42.666;23.366;2023-04-15T11:08:07;94309.63;;;20.84;23.70
40205;BME280;26963;42.666;23.366;2023-04-15T11:12:59;94310.41;;;20.84;23.27
40205;BME280;26963;42.666;23.366;2023-04-15T11:15:32;94315.81;;;20.81;23.25
40205;BME280;26963;42.666;23.366;2023-04-15T11:20:33;94167.84;;;19.69;22.91
40205;BME280;26963;42.666;23.366;2023-04-15T11:22:58;94312.53;;;20.68;23.03
40205;BME280;26963;42.666;23.366;2023-04-15T11:25:26;94316.78;;;20.65;22.75
40205;BME280;26963;42.666;23.366;2023-04-15T11:27:56;94310.25;;;20.70;23.00
40205;BME280;26963;42.666;23.366;2023-04-15T11:30:24;94315.16;;;20.57;22.82
40205;BME280;26963;42.666;23.366;2023-04-15T11:32:50;94294.38;;;20.42;23.40
40205;BME280;26963;42.666;23.366;2023-04-15T11:35:17;94318.69;;;20.61;23.59
40205;BME280;26963;42.666;23.366;2023-04-15T11:37:47;94303.91;;;20.59;23.69
40205;BME280;26963;42.666;23.366;2023-04-15T11:40:14;94307.81;;;20.61;23.99
40205;BME280;26963;42.666;23.366;2023-04-15T11:42:44;94237.13;;;19.90;23.42
40205;BME280;26963;42.666;23.366;2023-04-15T11:45:13;94282.06;;;19.87;23.40
40205;BME280;26963;42.666;23.366;2023-04-15T11:47:40;94296.69;;;19.79;21.90
40205;BME280;26963;42.666;23.366;2023-04-15T11:50:16;94281.44;;;19.97;22.41
40205;BME280;26963;42.666;23.366;2023-04-15T11:52:55;94290.22;;;19.87;23.97
40205;BME280;26963;42.666;23.366;2023-04-15T11:55:25;94285.94;;;19.86;23.13
40205;BME280;26963;42.666;23.366;2023-04-15T11:58:06;94279.56;;;20.01;22.99
40205;BME280;26963;42.666;23.366;2023-04-15T12:00:32;94292.22;;;20.24;22.98
40205;BME280;26963;42.666;23.366;2023-04-15T12:03:24;94284.50;;;20.26;21.81
40205;BME280;26963;42.666;23.366;2023-04-15T12:11:34;94292.72;;;19.99;23.24
40205;BME280;26963;42.666;23.366;2023-04-15T12:16:33;94219.81;;;19.71;20.86
40205;BME280;26963;42.666;23.366;2023-04-15T12:18:59;94221.78;;;20.04;20.41
40205;BME280;26963;42.666;23.366;2023-04-15T12:21:27;94166.22;;;19.64;20.20
40205;BME280;26963;42.666;23.366;2023-04-15T12:24:05;94303.47;;;20.57;20.16
40205;BME280;26963;42.666;23.366;2023-04-15T12:26:37;94295.38;;;20.60;20.52
40205;BME280;26963;42.666;23.366;2023-04-15T12:29:07;94268.06;;;20.46;20.89
40205;BME280;26963;42.666;23.366;2023-04-15T12:31:34;94274.31;;;20.50;20.14
40205;BME280;26963;42.666;23.366;2023-04-15T12:34:01;94290.59;;;20.50;20.15
40205;BME280;26963;42.666;23.366;2023-04-15T12:36:30;94274.25;;;20.46;21.02
40205;BME280;26963;42.666;23.366;2023-04-15T12:39:03;94273.88;;;20.48;20.91
40205;BME280;26963;42.666;23.366;2023-04-15T12:41:30;94290.38;;;20.66;21.17
40205;BME280;26963;42.666;23.366;2023-04-15T12:43:55;94287.69;;;20.69;21.53
40205;BME280;26963;42.666;23.366;2023-04-15T12:46:21;94268.97;;;20.61;20.61
40205;BME280;26963;42.666;23.366;2023-04-15T12:48:47;94291.66;;;20.76;20.11
40205;BME280;26963;42.666;23.366;2023-04-15T12:51:13;94224.41;;;20.31;20.85
40205;BME280;26963;42.666;23.366;2023-04-15T12:53:39;94287.63;;;20.62;20.96
40205;BME280;26963;42.666;23.366;2023-04-15T12:56:04;94239.19;;;20.34;20.99
40205;BME280;26963;42.666;23.366;2023-04-15T12:58:31;94248.81;;;20.28;21.07
40205;BME280;26963;42.666;23.366;2023-04-15T13:00:56;94300.00;;;20.56;21.08
40205;BME280;26963;42.666;23.366;2023-04-15T13:03:22;94304.59;;;20.52;21.14
40205;BME280;26963;42.666;23.366;2023-04-15T13:05:47;94309.22;;;20.48;21.37
40205;BME280;26963;42.666;23.366;2023-04-15T13:08:13;94228.59;;;19.91;20.88
40205;BME280;26963;42.666;23.366;2023-04-15T13:10:39;94294.94;;;20.24;21.46
40205;BME280;26963;42.666;23.366;2023-04-15T13:13:07;94284.75;;;20.14;21.28
40205;BME280;26963;42.666;23.366;2023-04-15T13:15:33;94272.13;;;19.98;21.11